sensor_id;sensor_type;location;lat;lon;timestamp;pressure;altitude;pressure_sealevel;temperature;humidity
42111;BME280;27766;52.174;5.456;2023-11-21T00:01:33;100955.44;;;8.32;100.00
42111;BME280;27766;52.174;5.456;2023-11-21T00:04:00;100951.19;;;8.32;100.00
42111;BME280;27766;52.174;5.456;2023-11-21T00:06:28;100957.47;;;8.42;100.00
42111;BME280;27766;52.174;5.456;2023-11-21T00:08:57;100960.97;;;8.44;100.00
42111;BME280;27766;52.174;5.456;2023-11-21T00:11:24;100972.94;;;8.42;100.00
42111;BME280;27766;52.174;5.456;2023-11-21T00:13:52;100965.16;;;8.39;100.00
42111;BME280;27766;52.174;5.456;2023-11-21T00:16:19;100965.41;;;8.48;100.00
42111;BME280;27766;52.174;5.456;2023-11-21T00:18:46;100970.69;;;8.51;100.00
42111;BME280;27766;52.174;5.456;2023-11-21T00:21:14;100968.06;;;8.50;100.00
42111;BME280;27766;52.174;5.456;2023-11-21T00:23:41;100969.50;;;8.42;100.00
42111;BME280;27766;52.174;5.456;2023-11-21T00:26:08;100972.00;;;8.38;100.00
42111;BME280;27766;52.174;5.456;2023-11-21T00:28:35;100964.09;;;8.32;100.00
42111;BME280;27766;52.174;5.456;2023-11-21T00:31:02;100987.31;;;8.34;100.00
42111;BME280;27766;52.174;5.456;2023-11-21T00:33:31;100987.19;;;8.29;100.00
42111;BME280;27766;52.174;5.456;2023-11-21T00:35:59;100984.59;;;8.29;100.00
42111;BME280;27766;52.174;5.456;2023-11-21T00:38:26;100983.78;;;8.30;100.00
42111;BME280;27766;52.174;5.456;2023-11-21T00:40:54;100983.09;;;8.36;100.00
42111;BME280;27766;52.174;5.456;2023-11-21T00:43:23;100978.63;;;8.30;100.00
42111;BME280;27766;52.174;5.456;2023-11-21T00:45:51;100983.81;;;8.32;100.00
42111;BME280;27766;52.174;5.456;2023-11-21T00:48:18;100975.63;;;8.16;100.00
42111;BME280;27766;52.174;5.456;2023-11-21T00:50:45;100987.03;;;8.24;100.00
42111;BME280;27766;52.174;5.456;2023-11-21T00:53:13;100988.88;;;8.27;100.00
42111;BME280;27766;52.174;5.456;2023-11-21T00:55:40;100989.63;;;8.24;100.00
42111;BME280;27766;52.174;5.456;2023-11-21T00:58:07;100986.03;;;8.19;100.00
42111;BME280;27766;52.174;5.456;2023-11-21T01:00:34;100992.31;;;8.28;100.00
42111;BME280;27766;52.174;5.456;2023-11-21T01:03:01;101001.81;;;8.29;100.00
42111;BME280;27766;52.174;5.456;2023-11-21T01:05:29;101013.88;;;8.30;100.00
42111;BME280;27766;52.174;5.456;2023-11-21T01:07:56;101009.72;;;8.35;100.00
42111;BME280;27766;52.174;5.456;2023-11-21T01:10:23;101013.16;;;8.35;100.00
42111;BME280;27766;52.174;5.456;2023-11-21T01:12:52;101009.72;;;8.35;100.00
42111;BME280;27766;52.174;5.456;2023-11-21T01:15:19;101017.59;;;8.39;100.00
42111;BME280;27766;52.174;5.456;2023-11-21T01:17:47;101010.66;;;8.37;100.00
42111;BME280;27766;52.174;5.456;2023-11-21T01:20:14;101024.38;;;8.36;100.00
42111;BME280;27766;52.174;5.456;2023-11-21T01:22:42;101013.03;;;8.31;100.00
42111;BME280;27766;52.174;5.456;2023-11-21T01:25:10;101013.25;;;8.38;100.00
42111;BME280;27766;52.174;5.456;2023-11-21T01:27:37;101009.81;;;8.38;100.00
42111;BME280;27766;52.174;5.456;2023-11-21T01:30:05;101009.03;;;8.40;100.00
42111;BME280;27766;52.174;5.456;2023-11-21T01:32:35;101019.50;;;8.45;100.00
42111;BME280;27766;52.174;5.456;2023-11-21T01:35:03;101028.84;;;8.42;100.00
42111;BME280;27766;52.174;5.456;2023-11-21T01:37:32;101028.06;;;8.44;100.00
42111;BME280;27766;52.174;5.456;2023-11-21T01:40:00;101023.88;;;8.48;100.00
42111;BME280;27766;52.174;5.456;2023-11-21T01:42:28;101028.25;;;8.50;100.00
42111;BME280;27766;52.174;5.456;2023-11-21T01:44:56;101027.50;;;8.54;100.00
42111;BME280;27766;52.174;5.456;2023-11-21T01:47:23;101024.81;;;8.50;100.00
42111;BME280;27766;52.174;5.456;2023-11-21T01:49:51;101026.78;;;8.59;100.00
42111;BME280;27766;52.174;5.456;2023-11-21T01:52:18;101024.47;;;8.68;100.00
42111;BME280;27766;52.174;5.456;2023-11-21T01:54:46;101033.88;;;8.66;100.00
42111;BME280;27766;52.174;5.456;2023-11-21T01:57:14;101038.19;;;8.67;100.00
42111;BME280;27766;52.174;5.456;2023-11-21T01:59:43;101044.28;;;8.69;100.00
42111;BME280;27766;52.174;5.456;2023-11-21T02:02:11;101032.50;;;8.77;100.00
42111;BME280;27766;52.174;5.456;2023-11-21T02:04:38;101036.78;;;8.78;100.00
42111;BME280;27766;52.174;5.456;2023-11-21T02:07:06;101054.09;;;8.81;100.00
42111;BME280;27766;52.174;5.456;2023-11-21T02:09:33;101048.94;;;8.81;100.00
42111;BME280;27766;52.174;5.456;2023-11-21T02:12:01;101063.69;;;8.86;100.00
42111;BME280;27766;52.174;5.456;2023-11-21T02:14:28;101062.97;;;8.91;100.00
42111;BME280;27766;52.174;5.456;2023-11-21T02:16:55;101062.16;;;8.92;100.00
42111;BME280;27766;52.174;5.456;2023-11-21T02:19:24;101070.19;;;9.02;100.00
42111;BME280;27766;52.174;5.456;2023-11-21T02:21:57;101073.63;;;9.03;100.00
42111;BME280;27766;52.174;5.456;2023-11-21T02:24:28;101071.16;;;9.06;100.00
42111;BME280;27766;52.174;5.456;2023-11-21T02:26:55;101073.06;;;9.13;100.00
42111;BME280;27766;52.174;5.456;2023-11-21T02:29:23;101062.63;;;9.10;100.00
42111;BME280;27766;52.174;5.456;2023-11-21T02:31:55;101071.34;;;9.14;100.00
42111;BME280;27766;52.174;5.456;2023-11-21T02:34:23;101066.97;;;9.11;100.00
42111;BME280;27766;52.174;5.456;2023-11-21T02:36:53;101070.66;;;9.19;100.00
42111;BME280;27766;52.174;5.456;2023-11-21T02:39:21;101072.31;;;9.17;100.00
42111;BME280;27766;52.174;5.456;2023-11-21T02:41:52;101077.56;;;9.21;100.00
42111;BME280;27766;52.174;5.456;2023-11-21T02:44:19;101076.75;;;9.22;100.00
42111;BME280;27766;52.174;5.456;2023-11-21T02:46:46;101078.50;;;9.23;100.00
42111;BME280;27766;52.174;5.456;2023-11-21T02:49:14;101073.38;;;9.26;100.00
42111;BME280;27766;52.174;5.456;2023-11-21T02:51:41;101079.47;;;9.28;100.00
42111;BME280;27766;52.174;5.456;2023-11-21T02:54:08;101074.28;;;9.26;100.00
42111;BME280;27766;52.174;5.456;2023-11-21T02:56:35;101076.09;;;9.30;100.00
42111;BME280;27766;52.174;5.456;2023-11-21T02:59:03;101067.28;;;9.22;100.00
42111;BME280;27766;52.174;5.456;2023-11-21T03:01:30;101074.31;;;9.28;100.00
42111;BME280;27766;52.174;5.456;2023-11-21T03:03:58;101081.25;;;9.29;100.00
42111;BME280;27766;52.174;5.456;2023-11-21T03:06:25;101080.19;;;9.22;100.00
42111;BME280;27766;52.174;5.456;2023-11-21T03:08:52;101078.56;;;9.26;100.00
42111;BME280;27766;52.174;5.456;2023-11-21T03:11:19;101083.88;;;9.32;100.00
42111;BME280;27766;52.174;5.456;2023-11-21T03:13:47;101076.19;;;9.33;100.00
42111;BME280;27766;52.174;5.456;2023-11-21T03:16:14;101072.66;;;9.30;100.00
42111;BME280;27766;52.174;5.456;2023-11-21T03:18:41;101079.59;;;9.32;100.00
42111;BME280;27766;52.174;5.456;2023-11-21T03:21:08;101076.19;;;9.33;100.00
42111;BME280;27766;52.174;5.456;2023-11-21T03:23:36;101078.78;;;9.33;100.00
42111;BME280;27766;52.174;5.456;2023-11-21T03:26:04;101067.38;;;9.25;100.00
42111;BME280;27766;52.174;5.456;2023-11-21T03:28:31;101072.56;;;9.27;100.00
42111;BME280;27766;52.174;5.456;2023-11-21T03:30:58;101068.22;;;9.26;100.00
42111;BME280;27766;52.174;5.456;2023-11-21T03:33:25;101074.22;;;9.25;100.00
42111;BME280;27766;52.174;5.456;2023-11-21T03:35:52;101084.53;;;9.23;100.00
42111;BME280;27766;52.174;5.456;2023-11-21T03:38:20;101075.84;;;9.21;100.00
42111;BME280;27766;52.174;5.456;2023-11-21T03:40:47;101093.09;;;9.22;100.00
42111;BME280;27766;52.174;5.456;2023-11-21T03:43:14;101096.75;;;9.30;100.00
42111;BME280;27766;52.174;5.456;2023-11-21T03:45:42;101092.41;;;9.28;100.00
42111;BME280;27766;52.174;5.456;2023-11-21T03:48:09;101098.50;;;9.30;100.00
42111;BME280;27766;52.174;5.456;2023-11-21T03:50:39;101095.13;;;9.34;100.00
42111;BME280;27766;52.174;5.456;2023-11-21T03:53:06;101099.56;;;9.38;100.00
42111;BME280;27766;52.174;5.456;2023-11-21T03:55:33;101104.81;;;9.41;100.00
42111;BME280;27766;52.174;5.456;2023-11-21T03:58:00;101113.50;;;9.45;100.00
42111;BME280;27766;52.174;5.456;2023-11-21T04:00:28;101111.09;;;9.51;100.00
42111;BME280;27766;52.174;5.456;2023-11-21T04:02:55;101117.94;;;9.49;100.00
42111;BME280;27766;52.174;5.456;2023-11-21T04:05:22;101111.88;;;9.48;100.00
42111;BME280;27766;52.174;5.456;2023-11-21T04:07:50;101115.31;;;9.47;100.00
42111;BME280;27766;52.174;5.456;2023-11-21T04:10:18;101119.88;;;9.58;100.00
42111;BME280;27766;52.174;5.456;2023-11-21T04:12:45;101124.28;;;9.62;100.00
42111;BME280;27766;52.174;5.456;2023-11-21T04:15:13;101135.53;;;9.62;100.00
42111;BME280;27766;52.174;5.456;2023-11-21T04:17:41;101131.31;;;9.66;100.00
42111;BME280;27766;52.174;5.456;2023-11-21T04:20:09;101131.47;;;9.72;100.00
42111;BME280;27766;52.174;5.456;2023-11-21T04:22:41;101139.25;;;9.74;100.00
42111;BME280;27766;52.174;5.456;2023-11-21T04:25:11;101139.19;;;9.71;100.00
42111;BME280;27766;52.174;5.456;2023-11-21T04:27:40;101146.25;;;9.78;100.00
42111;BME280;27766;52.174;5.456;2023-11-21T04:30:07;101146.25;;;9.78;100.00
42111;BME280;27766;52.174;5.456;2023-11-21T04:32:36;101147.88;;;9.73;100.00
42111;BME280;27766;52.174;5.456;2023-11-21T04:35:04;101152.22;;;9.75;100.00
42111;BME280;27766;52.174;5.456;2023-11-21T04:37:31;101148.81;;;9.76;100.00
42111;BME280;27766;52.174;5.456;2023-11-21T04:39:58;101154.88;;;9.78;100.00
42111;BME280;27766;52.174;5.456;2023-11-21T04:42:28;101156.66;;;9.81;100.00
42111;BME280;27766;52.174;5.456;2023-11-21T04:44:56;101161.94;;;9.84;100.00
42111;BME280;27766;52.174;5.456;2023-11-21T04:47:23;101162.03;;;9.87;100.00
42111;BME280;27766;52.174;5.456;2023-11-21T04:49:50;101165.28;;;9.80;100.00
42111;BME280;27766;52.174;5.456;2023-11-21T04:52:18;101166.31;;;9.87;100.00
42111;BME280;27766;52.174;5.456;2023-11-21T04:54:47;101164.53;;;9.86;100.00
42111;BME280;27766;52.174;5.456;2023-11-21T04:57:15;101173.16;;;9.85;100.00
42111;BME280;27766;52.174;5.456;2023-11-21T04:59:45;101166.06;;;9.77;100.00
42111;BME280;27766;52.174;5.456;2023-11-21T05:02:12;101162.72;;;9.81;100.00
42111;BME280;27766;52.174;5.456;2023-11-21T05:05:00;101166.97;;;9.79;100.00
42111;BME280;27766;52.174;5.456;2023-11-21T05:07:28;101172.53;;;9.93;100.00
42111;BME280;27766;52.174;5.456;2023-11-21T05:09:58;101172.66;;;10.00;100.00
42111;BME280;27766;52.174;5.456;2023-11-21T05:12:25;101177.97;;;10.04;100.00
42111;BME280;27766;52.174;5.456;2023-11-21T05:14:54;101177.00;;;10.01;100.00
42111;BME280;27766;52.174;5.456;2023-11-21T05:17:24;101189.00;;;9.97;100.00
42111;BME280;27766;52.174;5.456;2023-11-21T05:19:52;101182.16;;;9.99;100.00
42111;BME280;27766;52.174;5.456;2023-11-21T05:22:19;101195.03;;;9.97;100.00
42111;BME280;27766;52.174;5.456;2023-11-21T05:24:47;101196.94;;;10.05;100.00
42111;BME280;27766;52.174;5.456;2023-11-21T05:27:14;101185.59;;;10.00;100.00
42111;BME280;27766;52.174;5.456;2023-11-21T05:29:41;101193.44;;;10.03;100.00
42111;BME280;27766;52.174;5.456;2023-11-21T05:32:08;101198.81;;;10.10;100.00
42111;BME280;27766;52.174;5.456;2023-11-21T05:34:36;101199.75;;;10.14;100.00
42111;BME280;27766;52.174;5.456;2023-11-21T05:37:03;101206.69;;;10.15;100.00
42111;BME280;27766;52.174;5.456;2023-11-21T05:39:32;101199.69;;;10.11;100.00
42111;BME280;27766;52.174;5.456;2023-11-21T05:42:00;101202.22;;;10.09;100.00
42111;BME280;27766;52.174;5.456;2023-11-21T05:44:27;101210.09;;;10.14;100.00
42111;BME280;27766;52.174;5.456;2023-11-21T05:46:54;101211.09;;;10.19;100.00
42111;BME280;27766;52.174;5.456;2023-11-21T05:49:22;101216.22;;;10.18;100.00
42111;BME280;27766;52.174;5.456;2023-11-21T05:51:49;101218.81;;;10.18;100.00
42111;BME280;27766;52.174;5.456;2023-11-21T05:54:16;101213.84;;;10.25;100.00
42111;BME280;27766;52.174;5.456;2023-11-21T05:56:43;101223.38;;;10.26;100.00
42111;BME280;27766;52.174;5.456;2023-11-21T05:59:11;101225.19;;;10.30;100.00
42111;BME280;27766;52.174;5.456;2023-11-21T06:01:38;101224.66;;;10.42;100.00
42111;BME280;27766;52.174;5.456;2023-11-21T06:04:06;101219.72;;;10.18;100.00
42111;BME280;27766;52.174;5.456;2023-11-21T06:06:35;101234.69;;;10.30;100.00
42111;BME280;27766;52.174;5.456;2023-11-21T06:09:03;101234.72;;;10.33;100.00
42111;BME280;27766;52.174;5.456;2023-11-21T06:11:30;101243.31;;;10.30;100.00
42111;BME280;27766;52.174;5.456;2023-11-21T06:13:57;101240.84;;;10.35;100.00
42111;BME280;27766;52.174;5.456;2023-11-21T06:16:25;101251.91;;;10.31;100.00
42111;BME280;27766;52.174;5.456;2023-11-21T06:18:56;101252.47;;;10.19;100.00
42111;BME280;27766;52.174;5.456;2023-11-21T06:21:23;101259.53;;;10.25;100.00
42111;BME280;27766;52.174;5.456;2023-11-21T06:23:50;101258.69;;;10.26;100.00
42111;BME280;27766;52.174;5.456;2023-11-21T06:26:20;101260.63;;;10.35;100.00
42111;BME280;27766;52.174;5.456;2023-11-21T06:28:47;101260.59;;;10.33;100.00
42111;BME280;27766;52.174;5.456;2023-11-21T06:31:14;101266.69;;;10.34;100.00
42111;BME280;27766;52.174;5.456;2023-11-21T06:33:42;101261.59;;;10.37;100.00
42111;BME280;27766;52.174;5.456;2023-11-21T06:36:10;101264.41;;;10.46;100.00
42111;BME280;27766;52.174;5.456;2023-11-21T06:38:38;101268.88;;;10.52;100.00
42111;BME280;27766;52.174;5.456;2023-11-21T06:41:06;101274.88;;;10.49;100.00
42111;BME280;27766;52.174;5.456;2023-11-21T06:43:33;101270.53;;;10.48;100.00
42111;BME280;27766;52.174;5.456;2023-11-21T06:46:00;101276.59;;;10.50;100.00
42111;BME280;27766;52.174;5.456;2023-11-21T06:48:27;101272.09;;;10.43;100.00
42111;BME280;27766;52.174;5.456;2023-11-21T06:50:57;101263.38;;;10.39;100.00
42111;BME280;27766;52.174;5.456;2023-11-21T06:53:25;101276.44;;;10.44;100.00
42111;BME280;27766;52.174;5.456;2023-11-21T06:55:53;101281.00;;;10.53;100.00
42111;BME280;27766;52.174;5.456;2023-11-21T06:58:20;101281.25;;;10.64;100.00
42111;BME280;27766;52.174;5.456;2023-11-21T07:00:47;101290.81;;;10.66;100.00
42111;BME280;27766;52.174;5.456;2023-11-21T07:03:20;101300.13;;;10.59;100.00
42111;BME280;27766;52.174;5.456;2023-11-21T07:05:47;101301.06;;;10.63;100.00
42111;BME280;27766;52.174;5.456;2023-11-21T07:08:14;101306.22;;;10.61;100.00
42111;BME280;27766;52.174;5.456;2023-11-21T07:10:41;101308.91;;;10.65;100.00
42111;BME280;27766;52.174;5.456;2023-11-21T07:13:09;101317.78;;;10.74;100.00
42111;BME280;27766;52.174;5.456;2023-11-21T07:15:39;101318.75;;;10.80;100.00
42111;BME280;27766;52.174;5.456;2023-11-21T07:18:06;101320.59;;;10.84;100.00
42111;BME280;27766;52.174;5.456;2023-11-21T07:20:34;101325.66;;;10.79;100.00
42111;BME280;27766;52.174;5.456;2023-11-21T07:23:02;101326.50;;;10.78;100.00
42111;BME280;27766;52.174;5.456;2023-11-21T07:25:30;101330.84;;;10.79;100.00
42111;BME280;27766;52.174;5.456;2023-11-21T07:27:59;101343.94;;;10.85;100.00
42111;BME280;27766;52.174;5.456;2023-11-21T07:30:27;101343.41;;;11.00;100.00
42111;BME280;27766;52.174;5.456;2023-11-21T07:32:54;101349.38;;;10.96;100.00
42111;BME280;27766;52.174;5.456;2023-11-21T07:35:22;101346.06;;;11.02;100.00
42111;BME280;27766;52.174;5.456;2023-11-21T07:37:49;101350.44;;;11.04;100.00
42111;BME280;27766;52.174;5.456;2023-11-21T07:40:16;101340.91;;;11.03;100.00
42111;BME280;27766;52.174;5.456;2023-11-21T07:42:44;101340.22;;;11.11;100.00
42111;BME280;27766;52.174;5.456;2023-11-21T07:45:11;101350.56;;;11.11;100.00
42111;BME280;27766;52.174;5.456;2023-11-21T07:47:39;101353.94;;;11.06;100.00
42111;BME280;27766;52.174;5.456;2023-11-21T07:50:07;101354.94;;;11.12;100.00
42111;BME280;27766;52.174;5.456;2023-11-21T07:52:35;101361.09;;;11.17;100.00
42111;BME280;27766;52.174;5.456;2023-11-21T07:55:02;101359.28;;;11.14;100.00
42111;BME280;27766;52.174;5.456;2023-11-21T07:57:30;101365.56;;;11.24;100.00
42111;BME280;27766;52.174;5.456;2023-11-21T07:59:58;101373.44;;;11.27;100.00
42111;BME280;27766;52.174;5.456;2023-11-21T08:02:26;101374.25;;;11.26;100.00
42111;BME280;27766;52.174;5.456;2023-11-21T08:04:54;101383.91;;;11.32;100.00
42111;BME280;27766;52.174;5.456;2023-11-21T08:07:24;101387.34;;;11.32;100.00
42111;BME280;27766;52.174;5.456;2023-11-21T08:09:53;101390.75;;;11.30;100.00
42111;BME280;27766;52.174;5.456;2023-11-21T08:12:20;101398.81;;;11.42;100.00
42111;BME280;27766;52.174;5.456;2023-11-21T08:14:47;101398.91;;;11.47;100.00
42111;BME280;27766;52.174;5.456;2023-11-21T08:17:15;101411.97;;;11.50;100.00
42111;BME280;27766;52.174;5.456;2023-11-21T08:19:44;101418.97;;;11.54;100.00
42111;BME280;27766;52.174;5.456;2023-11-21T08:22:16;101422.56;;;11.59;100.00
42111;BME280;27766;52.174;5.456;2023-11-21T08:24:44;101425.75;;;11.49;100.00
42111;BME280;27766;52.174;5.456;2023-11-21T08:27:14;101431.22;;;11.61;100.00
42111;BME280;27766;52.174;5.456;2023-11-21T08:29:43;101440.84;;;11.65;100.00
42111;BME280;27766;52.174;5.456;2023-11-21T08:32:10;101434.75;;;11.65;100.00
42111;BME280;27766;52.174;5.456;2023-11-21T08:34:37;101448.50;;;11.61;100.00
42111;BME280;27766;52.174;5.456;2023-11-21T08:37:07;101455.19;;;11.51;100.00
42111;BME280;27766;52.174;5.456;2023-11-21T08:39:34;101461.44;;;11.59;100.00
42111;BME280;27766;52.174;5.456;2023-11-21T08:42:04;101459.56;;;11.53;100.00
42111;BME280;27766;52.174;5.456;2023-11-21T08:44:31;101471.81;;;11.59;100.00
42111;BME280;27766;52.174;5.456;2023-11-21T08:46:58;101478.81;;;11.63;100.00
42111;BME280;27766;52.174;5.456;2023-11-21T08:49:26;101478.94;;;11.69;100.00
42111;BME280;27766;52.174;5.456;2023-11-21T08:51:55;101478.75;;;11.60;100.00
42111;BME280;27766;52.174;5.456;2023-11-21T08:54:22;101471.16;;;11.69;100.00
42111;BME280;27766;52.174;5.456;2023-11-21T08:56:49;101466.91;;;11.71;100.00
42111;BME280;27766;52.174;5.456;2023-11-21T08:59:17;101465.25;;;11.75;100.00
42111;BME280;27766;52.174;5.456;2023-11-21T09:01:44;101479.31;;;11.85;100.00
42111;BME280;27766;52.174;5.456;2023-11-21T09:04:11;101478.41;;;11.83;100.00
42111;BME280;27766;52.174;5.456;2023-11-21T09:06:41;101496.75;;;11.91;100.00
42111;BME280;27766;52.174;5.456;2023-11-21T09:09:09;101501.06;;;11.90;100.00
42111;BME280;27766;52.174;5.456;2023-11-21T09:11:37;101512.34;;;11.92;100.00
42111;BME280;27766;52.174;5.456;2023-11-21T09:14:04;101517.56;;;11.94;100.00
42111;BME280;27766;52.174;5.456;2023-11-21T09:16:31;101517.50;;;11.91;100.00
42111;BME280;27766;52.174;5.456;2023-11-21T09:18:59;101508.91;;;11.93;100.00
42111;BME280;27766;52.174;5.456;2023-11-21T09:21:28;101517.59;;;11.95;100.00
42111;BME280;27766;52.174;5.456;2023-11-21T09:23:56;101525.28;;;11.91;100.00
42111;BME280;27766;52.174;5.456;2023-11-21T09:26:24;101528.31;;;11.72;100.00
42111;BME280;27766;52.174;5.456;2023-11-21T09:28:51;101532.81;;;11.80;100.00
42111;BME280;27766;52.174;5.456;2023-11-21T09:31:18;101533.47;;;11.71;100.00
42111;BME280;27766;52.174;5.456;2023-11-21T09:33:49;101537.69;;;11.67;100.00
42111;BME280;27766;52.174;5.456;2023-11-21T09:36:16;101547.19;;;11.67;100.00
42111;BME280;27766;52.174;5.456;2023-11-21T09:38:44;101540.81;;;11.54;100.00
42111;BME280;27766;52.174;5.456;2023-11-21T09:41:23;101559.19;;;11.63;100.00
42111;BME280;27766;52.174;5.456;2023-11-21T09:43:54;101559.34;;;11.69;100.00
42111;BME280;27766;52.174;5.456;2023-11-21T09:46:25;101560.72;;;11.55;100.00
42111;BME280;27766;52.174;5.456;2023-11-21T09:48:59;101573.75;;;11.58;100.00
42111;BME280;27766;52.174;5.456;2023-11-21T09:51:27;101566.94;;;11.62;100.00
42111;BME280;27766;52.174;5.456;2023-11-21T09:53:59;101571.97;;;11.55;100.00
42111;BME280;27766;52.174;5.456;2023-11-21T09:56:26;101581.44;;;11.55;100.00
42111;BME280;27766;52.174;5.456;2023-11-21T09:58:54;101579.97;;;11.65;100.00
42111;BME280;27766;52.174;5.456;2023-11-21T10:01:23;101586.13;;;11.68;100.00
42111;BME280;27766;52.174;5.456;2023-11-21T10:03:52;101587.00;;;11.69;100.00
42111;BME280;27766;52.174;5.456;2023-11-21T10:06:19;101591.75;;;11.52;100.00
42111;BME280;27766;52.174;5.456;2023-11-21T10:08:47;101597.78;;;11.51;100.00
42111;BME280;27766;52.174;5.456;2023-11-21T10:11:24;101596.72;;;11.44;100.00
42111;BME280;27766;52.174;5.456;2023-11-21T10:13:54;101583.75;;;11.43;100.00
42111;BME280;27766;52.174;5.456;2023-11-21T10:16:26;101596.94;;;11.52;100.00
42111;BME280;27766;52.174;5.456;2023-11-21T10:18:55;101604.75;;;11.53;100.00
42111;BME280;27766;52.174;5.456;2023-11-21T10:21:40;101609.25;;;11.61;100.00
42111;BME280;27766;52.174;5.456;2023-11-21T10:24:07;101610.75;;;11.51;100.00
42111;BME280;27766;52.174;5.456;2023-11-21T10:26:35;101629.72;;;11.50;100.00
42111;BME280;27766;52.174;5.456;2023-11-21T10:29:17;101640.19;;;11.53;100.00
42111;BME280;27766;52.174;5.456;2023-11-21T10:31:45;101640.19;;;11.53;100.00
42111;BME280;27766;52.174;5.456;2023-11-21T10:34:20;101629.72;;;11.50;100.00
42111;BME280;27766;52.174;5.456;2023-11-21T10:36:47;101643.66;;;11.55;100.00
42111;BME280;27766;52.174;5.456;2023-11-21T10:39:19;101645.47;;;11.57;100.00
42111;BME280;27766;52.174;5.456;2023-11-21T10:41:48;101654.03;;;11.55;100.00
42111;BME280;27766;52.174;5.456;2023-11-21T10:44:17;101664.50;;;11.58;100.00
42111;BME280;27766;52.174;5.456;2023-11-21T10:46:52;101655.81;;;11.56;100.00
42111;BME280;27766;52.174;5.456;2023-11-21T10:49:26;101678.22;;;11.54;100.00
42111;BME280;27766;52.174;5.456;2023-11-21T10:51:54;101687.72;;;11.53;100.00
42111;BME280;27766;52.174;5.456;2023-11-21T10:54:24;101693.88;;;11.57;100.00
42111;BME280;27766;52.174;5.456;2023-11-21T10:57:03;101693.84;;;11.55;100.00
42111;BME280;27766;52.174;5.456;2023-11-21T10:59:31;101694.81;;;11.61;100.00
42111;BME280;27766;52.174;5.456;2023-11-21T11:02:01;101701.50;;;11.52;100.00
42111;BME280;27766;52.174;5.456;2023-11-21T11:04:31;101702.56;;;11.59;100.00
42111;BME280;27766;52.174;5.456;2023-11-21T11:07:02;101694.66;;;11.54;100.00
42111;BME280;27766;52.174;5.456;2023-11-21T11:09:32;101701.84;;;11.65;100.00
42111;BME280;27766;52.174;5.456;2023-11-21T11:12:04;101700.53;;;11.49;100.00
42111;BME280;27766;52.174;5.456;2023-11-21T11:14:32;101698.34;;;11.63;100.00
42111;BME280;27766;52.174;5.456;2023-11-21T11:17:00;101692.63;;;11.75;100.00
42111;BME280;27766;52.174;5.456;2023-11-21T11:19:29;101697.88;;;11.78;100.00
42111;BME280;27766;52.174;5.456;2023-11-21T11:24:56;101692.88;;;11.52;100.00
42111;BME280;27766;52.174;5.456;2023-11-21T11:30:16;101707.19;;;11.39;100.00
42111;BME280;27766;52.174;5.456;2023-11-21T11:35:35;101716.41;;;11.60;100.00
42111;BME280;27766;52.174;5.456;2023-11-21T11:38:04;101709.84;;;11.72;100.00
42111;BME280;27766;52.174;5.456;2023-11-21T11:40:41;101711.50;;;11.70;100.00
42111;BME280;27766;52.174;5.456;2023-11-21T11:43:12;101708.09;;;11.71;100.00
42111;BME280;27766;52.174;5.456;2023-11-21T11:45:40;101713.53;;;11.81;100.00
42111;BME280;27766;52.174;5.456;2023-11-21T11:48:11;101719.00;;;11.60;100.00
42111;BME280;27766;52.174;5.456;2023-11-21T11:51:00;101726.50;;;11.81;100.00
42111;BME280;27766;52.174;5.456;2023-11-21T11:53:37;101727.31;;;11.80;100.00
42111;BME280;27766;52.174;5.456;2023-11-21T11:56:21;101730.41;;;11.97;100.00
42111;BME280;27766;52.174;5.456;2023-11-21T11:58:50;101735.13;;;11.81;100.00
42111;BME280;27766;52.174;5.456;2023-11-21T12:01:21;101737.81;;;11.84;100.00
42111;BME280;27766;52.174;5.456;2023-11-21T12:06:46;101748.75;;;11.72;100.00
42111;BME280;27766;52.174;5.456;2023-11-21T12:09:18;101755.59;;;11.70;100.00
42111;BME280;27766;52.174;5.456;2023-11-21T12:11:46;101754.06;;;11.47;100.00
42111;BME280;27766;52.174;5.456;2023-11-21T12:14:14;101748.19;;;11.52;100.00
42111;BME280;27766;52.174;5.456;2023-11-21T12:16:42;101752.63;;;11.56;100.00
42111;BME280;27766;52.174;5.456;2023-11-21T12:19:12;101764.00;;;11.62;100.00
42111;BME280;27766;52.174;5.456;2023-11-21T12:21:40;101751.91;;;11.62;100.00
42111;BME280;27766;52.174;5.456;2023-11-21T12:24:15;101753.59;;;11.60;100.00
42111;BME280;27766;52.174;5.456;2023-11-21T12:26:43;101763.22;;;11.64;100.00
42111;BME280;27766;52.174;5.456;2023-11-21T12:29:11;101761.81;;;11.76;100.00
42111;BME280;27766;52.174;5.456;2023-11-21T12:31:38;101762.56;;;11.73;100.00
42111;BME280;27766;52.174;5.456;2023-11-21T12:34:07;101756.72;;;11.80;100.00
42111;BME280;27766;52.174;5.456;2023-11-21T12:36:38;101758.72;;;11.89;100.00
42111;BME280;27766;52.174;5.456;2023-11-21T12:39:05;101766.25;;;11.81;100.00
42111;BME280;27766;52.174;5.456;2023-11-21T12:41:32;101761.31;;;11.89;100.00
42111;BME280;27766;52.174;5.456;2023-11-21T12:44:00;101772.47;;;11.86;100.00
42111;BME280;27766;52.174;5.456;2023-11-21T12:46:28;101779.09;;;11.77;100.00
42111;BME280;27766;52.174;5.456;2023-11-21T12:48:57;101778.28;;;11.78;100.00
42111;BME280;27766;52.174;5.456;2023-11-21T12:51:25;101780.13;;;11.82;100.00
42111;BME280;27766;52.174;5.456;2023-11-21T12:53:52;101786.31;;;11.87;100.00
42111;BME280;27766;52.174;5.456;2023-11-21T12:56:21;101791.00;;;11.99;100.00
42111;BME280;27766;52.174;5.456;2023-11-21T12:58:53;101788.25;;;11.94;100.00
42111;BME280;27766;52.174;5.456;2023-11-21T13:01:25;101798.81;;;12.00;100.00